createdAt,value
2019-02-18T00:01:28.860Z,6.80
2019-02-18T00:03:58.326Z,6.80
2019-02-18T00:06:27.855Z,6.80
2019-02-18T00:08:57.393Z,6.70
2019-02-18T00:11:29.854Z,6.80
2019-02-18T00:13:59.322Z,6.70
2019-02-18T00:16:28.959Z,6.70
2019-02-18T00:18:58.449Z,6.50
2019-02-18T00:21:27.933Z,6.50
2019-02-18T00:23:57.414Z,6.50
2019-02-18T00:26:26.870Z,6.50
2019-02-18T00:28:56.298Z,6.50
2019-02-18T00:31:25.799Z,5.90
2019-02-18T00:33:55.227Z,5.50
2019-02-18T00:36:24.546Z,5.30
2019-02-18T00:38:53.925Z,4.90
2019-02-18T00:41:23.297Z,4.90
2019-02-18T00:43:52.711Z,4.90
2019-02-18T00:46:22.034Z,5.00
2019-02-18T00:48:51.422Z,5.00
2019-02-18T00:51:20.788Z,4.90
2019-02-18T00:53:50.254Z,4.90
2019-02-18T00:56:19.650Z,5.00
2019-02-18T00:58:48.994Z,5.10
2019-02-18T01:01:18.426Z,5.30
2019-02-18T01:03:47.829Z,5.30
2019-02-18T01:06:17.205Z,5.40
2019-02-18T01:08:46.658Z,5.50
2019-02-18T01:11:16.101Z,5.50
2019-02-18T01:13:45.462Z,5.60
2019-02-18T01:16:14.796Z,5.60
2019-02-18T01:18:44.180Z,5.70
2019-02-18T01:21:13.634Z,5.60
2019-02-18T01:23:42.981Z,5.60
2019-02-18T01:26:12.470Z,5.70
2019-02-18T01:28:41.906Z,5.70
2019-02-18T01:31:11.356Z,5.70
2019-02-18T01:33:40.814Z,5.60
2019-02-18T01:36:10.293Z,5.60
2019-02-18T01:38:39.813Z,5.50
2019-02-18T01:41:09.291Z,5.50
2019-02-18T01:43:38.784Z,5.50
2019-02-18T01:46:08.358Z,5.60
2019-02-18T01:48:37.975Z,5.60
2019-02-18T01:51:07.454Z,5.70
2019-02-18T01:53:37.044Z,5.60
2019-02-18T01:56:06.514Z,5.60
2019-02-18T01:58:35.959Z,5.60
2019-02-18T02:01:05.646Z,5.60
2019-02-18T02:03:35.049Z,5.60
2019-02-18T02:06:04.514Z,5.40
2019-02-18T02:08:34.071Z,5.30
2019-02-18T02:11:03.579Z,5.40
2019-02-18T02:13:34.587Z,5.50
2019-02-18T02:16:06.324Z,5.50
2019-02-18T02:18:35.826Z,5.40
2019-02-18T02:21:05.329Z,5.40
2019-02-18T02:23:34.844Z,5.10
2019-02-18T02:26:04.331Z,4.90
2019-02-18T02:28:33.807Z,4.90
2019-02-18T02:31:03.281Z,4.70
2019-02-18T02:33:32.658Z,4.70
2019-02-18T02:36:02.131Z,4.60
2019-02-18T02:38:31.475Z,4.30
2019-02-18T02:41:00.909Z,4.40
2019-02-18T02:43:30.242Z,4.60
2019-02-18T02:45:59.700Z,4.70
2019-02-18T02:48:29.123Z,4.80
2019-02-18T02:50:58.583Z,4.70
2019-02-18T02:53:27.934Z,4.70
2019-02-18T02:55:57.397Z,4.70
2019-02-18T02:58:26.785Z,4.50
2019-02-18T03:00:56.358Z,4.60
2019-02-18T03:03:25.761Z,4.60
2019-02-18T03:05:55.222Z,4.70
2019-02-18T03:08:24.631Z,4.90
2019-02-18T03:10:54.020Z,5.10
2019-02-18T03:13:23.409Z,5.10
2019-02-18T03:15:52.872Z,5.20
2019-02-18T03:18:22.315Z,5.20
2019-02-18T03:20:51.691Z,5.30
2019-02-18T03:23:21.024Z,5.40
2019-02-18T03:25:52.197Z,5.30
2019-02-18T03:29:04.720Z,5.40
2019-02-18T03:31:34.226Z,5.30
2019-02-18T03:34:10.840Z,5.30
2019-02-18T03:36:40.260Z,5.20
2019-02-18T03:39:09.618Z,5.30
2019-02-18T03:41:40.985Z,5.20
2019-02-18T03:44:10.126Z,5.20
2019-02-18T03:46:39.641Z,5.20
2019-02-18T03:49:09.014Z,5.20
2019-02-18T03:51:38.488Z,5.30
2019-02-18T03:54:08.009Z,5.30
2019-02-18T03:56:37.490Z,5.30
2019-02-18T03:59:06.989Z,5.30
2019-02-18T04:01:36.478Z,5.30
2019-02-18T04:04:05.939Z,5.30
2019-02-18T04:06:35.410Z,5.00
2019-02-18T04:09:06.082Z,4.80
2019-02-18T04:11:35.646Z,4.90
2019-02-18T04:14:05.430Z,5.00
2019-02-18T04:16:34.897Z,5.10
2019-02-18T04:19:04.522Z,5.10
2019-02-18T04:21:34.122Z,5.10
2019-02-18T04:24:03.669Z,5.10
2019-02-18T04:26:33.128Z,5.10
2019-02-18T04:29:02.631Z,5.00
2019-02-18T04:31:32.151Z,5.10
2019-02-18T04:34:01.597Z,5.10
2019-02-18T04:36:31.055Z,5.20
2019-02-18T04:39:00.538Z,5.20
2019-02-18T04:41:29.900Z,5.20
2019-02-18T04:43:59.240Z,5.20
2019-02-18T04:46:29.008Z,5.30
2019-02-18T04:48:58.631Z,5.30
2019-02-18T04:51:28.051Z,5.30
2019-02-18T04:53:57.624Z,5.30
2019-02-18T04:56:27.140Z,5.30
2019-02-18T04:58:56.729Z,5.20
2019-02-18T05:01:26.301Z,5.30
2019-02-18T05:03:55.825Z,5.30
2019-02-18T05:06:25.598Z,5.30
2019-02-18T05:09:05.092Z,5.30
2019-02-18T05:11:26.384Z,5.30
2019-02-18T05:13:55.912Z,5.30
2019-02-18T05:16:25.412Z,5.20
2019-02-18T05:18:54.918Z,5.20
2019-02-18T05:21:24.301Z,5.10
2019-02-18T05:23:53.809Z,5.00
2019-02-18T05:26:23.232Z,5.10
2019-02-18T05:28:52.640Z,5.00
2019-02-18T05:31:22.047Z,5.10
2019-02-18T05:33:51.605Z,5.00
2019-02-18T05:36:21.190Z,5.00
2019-02-18T05:38:50.763Z,5.00
2019-02-18T05:41:20.329Z,5.10
2019-02-18T05:43:50.032Z,5.10
2019-02-18T05:46:19.606Z,5.10
2019-02-18T05:48:49.177Z,5.20
2019-02-18T05:51:18.730Z,5.20
2019-02-18T05:53:48.353Z,5.20
2019-02-18T05:56:18.878Z,5.20
2019-02-18T05:58:48.438Z,5.20
2019-02-18T06:01:19.585Z,5.10
2019-02-18T06:03:49.122Z,5.10
2019-02-18T06:06:18.736Z,5.10
2019-02-18T06:08:48.225Z,5.10
2019-02-18T06:11:17.754Z,5.20
2019-02-18T06:13:47.183Z,5.40
2019-02-18T06:16:16.688Z,5.40
2019-02-18T06:18:46.117Z,5.30
2019-02-18T06:21:15.705Z,5.20
2019-02-18T06:23:45.210Z,5.10
2019-02-18T06:26:23.510Z,5.10
2019-02-18T06:28:52.974Z,5.20
2019-02-18T06:31:22.558Z,5.20
2019-02-18T06:33:52.029Z,5.00
2019-02-18T06:36:23.801Z,4.90
2019-02-18T06:38:52.646Z,4.60
2019-02-18T06:41:22.338Z,4.40
2019-02-18T06:43:51.905Z,4.40
2019-02-18T06:46:51.193Z,4.40
2019-02-18T06:49:33.153Z,4.70
2019-02-18T06:52:14.137Z,4.80
2019-02-18T06:55:00.294Z,4.40
2019-02-18T06:58:00.755Z,4.50
2019-02-18T07:03:50.785Z,4.00
2019-02-18T07:06:51.285Z,3.90
2019-02-18T07:09:51.651Z,4.10
2019-02-18T07:12:38.886Z,4.30
2019-02-18T07:15:20.404Z,4.30
2019-02-18T07:18:01.056Z,4.40
2019-02-18T07:20:42.661Z,4.30
2019-02-18T07:23:24.082Z,4.50
2019-02-18T07:26:05.164Z,4.30
2019-02-18T07:28:45.722Z,4.40
2019-02-18T07:31:31.777Z,4.00
2019-02-18T07:34:12.701Z,4.10
2019-02-18T07:36:54.036Z,4.10
2019-02-18T07:39:35.212Z,4.30
2019-02-18T07:42:16.507Z,4.50
2019-02-18T07:45:00.661Z,4.50
2019-02-18T07:47:41.317Z,4.60
2019-02-18T07:53:07.144Z,4.80
2019-02-18T07:55:48.032Z,4.90
2019-02-18T07:58:29.420Z,5.00
2019-02-18T08:01:10.649Z,5.10
2019-02-18T08:03:51.393Z,5.20
2019-02-18T08:06:32.373Z,5.50
2019-02-18T08:09:13.857Z,5.70
2019-02-18T08:11:55.596Z,5.80
2019-02-18T08:14:37.357Z,5.90
2019-02-18T08:17:18.204Z,5.90
2019-02-18T08:19:59.754Z,6.00
2019-02-18T08:22:40.979Z,6.20
2019-02-18T08:25:25.405Z,6.30
2019-02-18T08:28:09.146Z,6.40
2019-02-18T08:30:56.103Z,6.50
2019-02-18T08:33:43.116Z,6.60
2019-02-18T08:36:24.158Z,6.80
2019-02-18T08:39:05.172Z,6.90
2019-02-18T08:41:46.511Z,7.00
2019-02-18T08:44:29.386Z,7.10
2019-02-18T08:47:13.667Z,7.20
2019-02-18T08:49:55.118Z,7.40
2019-02-18T08:52:37.341Z,7.50
2019-02-18T08:55:19.699Z,7.60
2019-02-18T08:58:05.016Z,7.70
2019-02-18T09:00:45.822Z,7.70
2019-02-18T09:03:29.826Z,7.70
2019-02-18T09:06:09.435Z,7.80
2019-02-18T09:08:57.840Z,7.90
2019-02-18T09:11:40.068Z,8.10
2019-02-18T09:14:19.626Z,8.20
2019-02-18T09:17:01.000Z,8.30
2019-02-18T09:19:41.642Z,8.30
2019-02-18T09:22:49.944Z,8.40
2019-02-18T09:28:44.625Z,8.60
2019-02-18T09:34:08.394Z,8.80
2019-02-18T09:37:08.883Z,8.90
2019-02-18T09:39:49.785Z,9.00
2019-02-18T09:42:31.254Z,9.10
2019-02-18T09:45:14.885Z,9.20
2019-02-18T09:47:56.434Z,9.30
2019-02-18T09:50:38.597Z,9.30
2019-02-18T09:53:19.700Z,9.40
2019-02-18T09:56:01.423Z,9.50
2019-02-18T09:58:42.083Z,9.50
2019-02-18T10:01:23.126Z,9.70
2019-02-18T10:04:04.426Z,9.80
2019-02-18T10:06:46.037Z,9.90
2019-02-18T10:09:26.921Z,10.00
2019-02-18T10:12:18.360Z,10.20
2019-02-18T10:14:57.095Z,10.20
2019-02-18T10:20:24.297Z,10.30
2019-02-18T10:23:04.972Z,10.40
2019-02-18T10:28:33.985Z,10.50
2019-02-18T10:34:35.978Z,10.60
2019-02-18T10:37:23.448Z,10.70
2019-02-18T10:43:32.687Z,10.80
2019-02-18T10:46:17.222Z,11.00
2019-02-18T10:48:57.986Z,11.10
2019-02-18T10:51:39.056Z,11.10
2019-02-18T10:54:08.823Z,11.20
2019-02-18T10:56:57.318Z,11.30
2019-02-18T10:59:26.910Z,11.40
2019-02-18T11:02:16.579Z,11.30
2019-02-18T11:05:42.903Z,11.40
2019-02-18T11:08:23.744Z,11.50
2019-02-18T11:13:50.293Z,11.60
2019-02-18T11:16:30.980Z,11.80
2019-02-18T11:22:04.383Z,11.90
2019-02-18T11:24:45.959Z,12.00
2019-02-18T11:27:27.183Z,11.90
2019-02-18T11:30:08.344Z,11.90
2019-02-18T11:32:52.626Z,12.00
2019-02-18T11:35:33.235Z,12.10
2019-02-18T11:38:22.117Z,12.20
2019-02-18T11:41:03.836Z,12.20
2019-02-18T11:43:44.743Z,12.30
2019-02-18T11:46:25.765Z,12.40
2019-02-18T11:49:10.012Z,12.40
2019-02-18T11:51:51.248Z,12.40
2019-02-18T11:54:33.034Z,12.50
2019-02-18T11:57:14.462Z,12.60
2019-02-18T11:59:55.057Z,12.70
2019-02-18T12:02:36.612Z,12.70
2019-02-18T12:05:18.899Z,12.70
2019-02-18T12:08:00.028Z,12.70
2019-02-18T12:13:23.650Z,12.80
2019-02-18T12:16:04.814Z,12.90
2019-02-18T12:18:46.302Z,12.90
2019-02-18T12:21:27.606Z,13.00
2019-02-18T12:24:08.316Z,13.00
2019-02-18T12:26:49.598Z,13.00
2019-02-18T12:29:31.134Z,13.00
2019-02-18T12:32:10.983Z,13.10
2019-02-18T12:34:51.801Z,13.10
2019-02-18T12:37:33.421Z,13.20
2019-02-18T12:40:17.851Z,13.10
2019-02-18T12:42:58.599Z,13.20
2019-02-18T12:45:39.895Z,13.00
2019-02-18T12:48:21.876Z,13.00
2019-02-18T12:51:02.815Z,13.10
2019-02-18T12:53:46.130Z,13.10
2019-02-18T12:56:26.725Z,13.20
2019-02-18T12:59:07.506Z,13.30
2019-02-18T13:01:48.738Z,13.40
2019-02-18T13:04:31.943Z,13.40
2019-02-18T13:07:11.877Z,13.30
2019-02-18T13:09:53.458Z,13.40
2019-02-18T13:12:34.775Z,13.30
2019-02-18T13:15:19.220Z,13.40
2019-02-18T13:20:42.163Z,13.40
2019-02-18T13:23:23.785Z,13.50
2019-02-18T13:26:05.141Z,13.40
2019-02-18T13:28:47.746Z,13.50
2019-02-18T13:31:29.559Z,13.40
2019-02-18T13:34:11.250Z,13.40
2019-02-18T13:36:52.731Z,13.50
2019-02-18T13:39:33.943Z,13.50
2019-02-18T13:42:15.213Z,13.50
2019-02-18T13:44:56.567Z,13.60
2019-02-18T13:47:38.141Z,13.50
2019-02-18T13:50:19.768Z,13.50
2019-02-18T13:53:01.151Z,13.60
2019-02-18T13:55:42.691Z,13.60
2019-02-18T13:58:12.265Z,13.60
2019-02-18T14:00:53.020Z,13.60
2019-02-18T14:03:34.440Z,13.50
2019-02-18T14:06:22.144Z,13.50
2019-02-18T14:09:03.148Z,13.60
2019-02-18T14:11:44.110Z,13.60
2019-02-18T14:14:25.538Z,13.50
2019-02-18T14:17:07.058Z,13.50
2019-02-18T14:19:48.495Z,13.50
2019-02-18T14:22:29.792Z,13.50
2019-02-18T14:25:13.388Z,13.50
2019-02-18T14:28:07.093Z,13.50
2019-02-18T14:30:48.801Z,13.50
2019-02-18T14:33:30.032Z,13.60
2019-02-18T14:36:11.145Z,13.60
2019-02-18T14:38:52.683Z,13.60
2019-02-18T14:41:34.479Z,13.60
2019-02-18T14:47:05.333Z,13.50
2019-02-18T14:49:46.335Z,13.40
2019-02-18T14:52:40.197Z,13.40
2019-02-18T14:55:22.781Z,13.40
2019-02-18T14:58:03.893Z,13.40
2019-02-18T15:00:45.383Z,13.40
2019-02-18T15:03:32.013Z,13.40
2019-02-18T15:06:20.525Z,13.30
2019-02-18T15:09:25.801Z,13.30
2019-02-18T15:12:19.244Z,13.30
2019-02-18T15:15:00.287Z,13.30
2019-02-18T15:17:41.651Z,13.30
2019-02-18T15:20:11.665Z,13.30
2019-02-18T15:23:20.490Z,13.20
2019-02-18T15:26:03.758Z,13.20
2019-02-18T15:28:33.154Z,13.20
2019-02-18T15:31:21.911Z,13.10
2019-02-18T15:34:10.407Z,13.00
2019-02-18T15:36:53.121Z,12.90
2019-02-18T15:39:36.565Z,12.80
2019-02-18T15:42:22.034Z,12.80
2019-02-18T15:48:01.516Z,12.60
2019-02-18T15:50:36.786Z,12.50
2019-02-18T15:53:24.111Z,12.50
2019-02-18T15:56:09.577Z,12.60
2019-02-18T15:59:09.872Z,12.50
2019-02-18T16:01:52.293Z,12.50
2019-02-18T16:04:32.794Z,12.40
2019-02-18T16:07:14.868Z,12.40
2019-02-18T16:10:05.544Z,12.30
2019-02-18T16:16:01.763Z,12.20
2019-02-18T16:18:42.810Z,12.10
2019-02-18T16:24:29.838Z,12.00
2019-02-18T16:27:21.941Z,11.90
2019-02-18T16:30:18.292Z,11.80
2019-02-18T16:32:59.980Z,11.70
2019-02-18T16:38:43.726Z,11.60
2019-02-18T16:45:09.278Z,11.50
2019-02-18T16:47:58.195Z,11.30
2019-02-18T16:50:41.909Z,11.20
2019-02-18T16:53:24.292Z,11.10
2019-02-18T16:56:03.874Z,11.10
2019-02-18T16:58:54.081Z,11.00
2019-02-18T17:01:38.191Z,10.90
2019-02-18T17:04:20.615Z,10.80
2019-02-18T17:07:02.328Z,10.70
2019-02-18T17:09:45.244Z,10.70
2019-02-18T17:12:26.303Z,10.60
2019-02-18T17:15:07.618Z,10.50
2019-02-18T17:17:49.596Z,10.40
2019-02-18T17:20:30.892Z,10.40
2019-02-18T17:23:27.939Z,10.30
2019-02-18T17:26:08.999Z,10.30
2019-02-18T17:28:53.599Z,10.20
2019-02-18T17:31:33.192Z,10.20
2019-02-18T17:34:42.395Z,10.10
2019-02-18T17:37:23.330Z,10.10
2019-02-18T17:40:07.983Z,10.00
2019-02-18T17:42:49.135Z,9.90
2019-02-18T17:45:30.676Z,9.80
2019-02-18T17:48:11.416Z,9.80
2019-02-18T17:50:52.500Z,9.70
2019-02-18T17:53:33.575Z,9.70
2019-02-18T17:56:15.891Z,9.60
2019-02-18T17:58:56.905Z,9.60
2019-02-18T18:01:51.900Z,9.60
2019-02-18T18:04:32.630Z,9.50
2019-02-18T18:07:20.402Z,9.50
2019-02-18T18:10:03.695Z,9.50
2019-02-18T18:12:45.145Z,9.40
2019-02-18T18:15:27.973Z,9.40
2019-02-18T18:18:13.578Z,9.40
2019-02-18T18:24:03.883Z,9.20
2019-02-18T18:26:47.341Z,9.10
2019-02-18T18:29:28.893Z,9.00
2019-02-18T18:32:11.842Z,9.00
2019-02-18T18:34:54.138Z,8.80
2019-02-18T18:37:35.809Z,8.70
2019-02-18T18:40:17.624Z,8.70
2019-02-18T18:43:00.454Z,8.50
2019-02-18T18:45:45.161Z,8.50
2019-02-18T18:48:31.247Z,8.50
2019-02-18T18:51:14.225Z,8.50
2019-02-18T18:54:02.619Z,8.40
2019-02-18T18:56:46.291Z,8.30
2019-02-18T18:59:32.794Z,8.20
2019-02-18T19:02:14.066Z,8.20
2019-02-18T19:04:55.744Z,8.30
2019-02-18T19:07:37.451Z,8.20
2019-02-18T19:10:19.954Z,8.10
2019-02-18T19:13:03.382Z,8.10
2019-02-18T19:15:49.640Z,8.10
2019-02-18T19:18:27.174Z,8.00
2019-02-18T19:21:09.711Z,8.00
2019-02-18T19:23:51.551Z,8.10
2019-02-18T19:26:32.894Z,8.10
2019-02-18T19:29:15.867Z,8.10
2019-02-18T19:31:57.483Z,8.00
2019-02-18T19:34:37.628Z,7.90
2019-02-18T19:37:26.713Z,7.90
2019-02-18T19:40:10.313Z,7.90
2019-02-18T19:42:51.414Z,7.90
2019-02-18T19:45:35.071Z,7.90
2019-02-18T19:48:16.263Z,7.80
2019-02-18T19:50:46.549Z,7.80
2019-02-18T19:53:36.483Z,7.80
2019-02-18T19:56:26.390Z,7.70
2019-02-18T19:59:07.816Z,7.60
2019-02-18T20:01:52.497Z,7.40
2019-02-18T20:04:34.237Z,7.30
2019-02-18T20:07:26.764Z,7.20
2019-02-18T20:10:11.989Z,7.30
2019-02-18T20:12:55.094Z,7.30
2019-02-18T20:15:38.328Z,7.30
2019-02-18T20:18:19.826Z,7.30
2019-02-18T20:21:06.945Z,7.30
2019-02-18T20:24:09.584Z,7.30
2019-02-18T20:26:51.140Z,7.00
2019-02-18T20:29:32.665Z,6.90
2019-02-18T20:32:13.726Z,6.90
2019-02-18T20:34:55.909Z,6.80
2019-02-18T20:37:43.710Z,6.80
2019-02-18T20:43:27.261Z,6.60
2019-02-18T20:46:14.206Z,6.50
2019-02-18T20:51:38.764Z,6.70
2019-02-18T20:54:27.719Z,6.80
2019-02-18T20:57:09.276Z,6.90
2019-02-18T20:59:51.370Z,6.90
2019-02-18T21:02:32.375Z,7.00
2019-02-18T21:05:13.733Z,6.90
2019-02-18T21:11:30.867Z,6.60
2019-02-18T21:14:16.190Z,6.30
2019-02-18T21:16:57.063Z,6.10
2019-02-18T21:19:39.694Z,5.90
2019-02-18T21:22:27.961Z,5.70
2019-02-18T21:25:19.195Z,5.80
2019-02-18T21:28:00.380Z,5.80
2019-02-18T21:30:46.424Z,5.70
2019-02-18T21:33:29.828Z,5.60
2019-02-18T21:36:11.018Z,5.70
2019-02-18T21:42:00.470Z,5.70
2019-02-18T21:44:42.752Z,5.60
2019-02-18T21:47:24.154Z,5.60
2019-02-18T21:50:09.554Z,5.50
2019-02-18T21:52:51.554Z,5.50
2019-02-18T21:55:34.364Z,5.50
2019-02-18T21:58:17.055Z,5.50
2019-02-18T22:00:59.550Z,5.50
2019-02-18T22:07:01.922Z,5.60
2019-02-18T22:09:59.523Z,5.50
2019-02-18T22:12:41.043Z,5.50
2019-02-18T22:15:22.268Z,5.70
2019-02-18T22:18:03.337Z,5.80
2019-02-18T22:20:48.049Z,6.00
2019-02-18T22:23:28.507Z,6.10
2019-02-18T22:26:17.275Z,6.10
2019-02-18T22:28:58.885Z,6.20
2019-02-18T22:31:39.902Z,6.40
2019-02-18T22:34:23.196Z,6.40
2019-02-18T22:37:04.447Z,6.40
2019-02-18T22:43:07.942Z,6.20
2019-02-18T22:48:51.701Z,6.10
2019-02-18T22:51:32.649Z,6.10
2019-02-18T22:54:17.020Z,6.10
2019-02-18T22:57:00.586Z,6.20
2019-02-18T23:00:02.824Z,6.40
2019-02-18T23:05:53.079Z,6.50
2019-02-18T23:08:34.008Z,6.60
2019-02-18T23:11:18.997Z,6.60
2019-02-18T23:14:05.108Z,6.80
2019-02-18T23:16:50.592Z,6.80
2019-02-18T23:19:32.126Z,6.80
2019-02-18T23:25:36.831Z,6.90
2019-02-18T23:31:21.395Z,6.80
2019-02-18T23:34:18.635Z,6.80
2019-02-18T23:37:04.275Z,6.80
2019-02-18T23:39:46.401Z,6.90
2019-02-18T23:42:29.667Z,6.80
2019-02-18T23:45:11.111Z,6.70
2019-02-18T23:47:55.846Z,6.70
2019-02-18T23:50:41.464Z,6.90
2019-02-18T23:53:23.392Z,6.90
2019-02-18T23:56:04.722Z,6.80
2019-02-18T23:58:45.827Z,6.70
